Weather forecast for Bulen (Булен)

Russia, 519 m
N52.847, E104.807


Sounding

Red line — air temperature ˚C.
Blue line — thermal bubble temperature ˚C.
Green line — dew point temperature ˚C.
Wind speed is in meters per second.

Table forecast

GFS 0.25˚ model

temp. wind gust humid. clouds prec. press. hpbl
Sat19 00:00 -14 281.0 w 2 2 97 100 0.1 1038 21
03:00 -16 279.0 w 1 2 98 100 0.2 1040 20
06:00 -18 271.0 w 1 1 100 61 0.0 1040 20
09:00 -17 164.0 sse 1 1 99 65 0.0 1040 20
12:00 -15 118.0 ese 1 2 96 89 0.0 1039 30
15:00 -10 106.0 ese 2 3 89 85 0.0 1034 161
18:00 -11 97.0 e 2 3 87 76 0.0 1033 21
21:00 -13 100.0 e 2 2 81 79 0.0 1032 20
 
Sun20 00:00 -13 101.0 e 2 2 78 75 0.0 1030 21
03:00 -14 126.0 se 1 1 78 62 0.0 1029 20
06:00 -15 213.0 ssw 1 1 78 53 0.0 1028 21
09:00 -15 229.0 sw 1 2 80 73 0.0 1029 20
12:00 -13 217.0 sw 2 2 82 97 0.0 1029 23
15:00 -9 228.0 sw 1 1 79 98 0.0 1026 77
18:00 -11 147.0 sse 0 0 73 100 0.0 1026 21
21:00 -13 102.0 ese 1 1 67 95 0.0 1027 21
 
Mon21 00:00 -14 122.0 ese 1 1 62 56 0.0 1026 21
03:00 -14 174.0 s 1 1 64 49 0.0 1025 21
06:00 -14 156.0 sse 0 1 71 55 0.0 1024 21
09:00 -11 292.0 wnw 0 0 69 79 0.0 1024 21
12:00 -9 257.0 wsw 2 2 80 100 0.0 1024 50
15:00 -7 238.0 wsw 2 2 80 93 0.0 1021 160
18:00 -10 224.0 sw 1 1 82 37 0.0 1022 21
21:00 -12 106.0 ese 1 1 81 53 0.0 1023 21
 
Tue22 00:00 -12 79.0 e 1 2 80 78 0.0 1023 21
03:00 -12 68.0 ene 2 2 80 74 0.0 1022 21
06:00 -12 57.0 ene 2 3 80 71 0.0 1021 21
09:00 -12 57.0 ene 2 2 79 67 0.0 1023 21
12:00 -10 315.0 nw 1 2 81 97 0.0 1025 22
15:00 -8 250.0 wsw 2 3 85 99 0.0 1025 206
18:00 -10 232.0 sw 2 3 91 95 0.0 1027 37
21:00 -12 230.0 sw 2 2 90 93 0.0 1030 20
 
Wed23 00:00 -13 238.0 wsw 1 2 90 89 0.0 1033 20
03:00 -13 240.0 wsw 2 2 93 88 0.1 1034 20
06:00 -14 254.0 wsw 2 2 98 52 0.0 1036 20
09:00 -16 259.0 w 1 2 100 36 0.0 1038 20
12:00 -14 241.0 wsw 1 1 97 14 0.0 1039 23
15:00 -10 223.0 sw 1 2 88 13 0.0 1037 191
18:00 -13 149.0 sse 1 1 88 0 0.0 1038 21
21:00 -15 95.0 e 1 2 84 0 0.0 1039 20
 

0.007 s